sensor_id;sensor_type;location;lat;lon;timestamp;P1;durP1;ratioP1;P2;durP2;ratioP2
38972;SDS011;25333;50.762;4.470;2024-02-26T01:22:05;1.10;;;0.50;;
38972;SDS011;25333;50.762;4.470;2024-02-26T01:31:41;1.00;;;0.30;;
38972;SDS011;25333;50.762;4.470;2024-02-26T01:38:46;0.65;;;0.30;;
38972;SDS011;25333;50.762;4.470;2024-02-26T02:06:16;1.00;;;0.25;;
38972;SDS011;25333;50.762;4.470;2024-02-26T02:08:49;0.90;;;0.40;;
38972;SDS011;25333;50.762;4.470;2024-02-26T02:14:40;0.95;;;0.40;;
38972;SDS011;25333;50.762;4.470;2024-02-26T02:17:41;1.88;;;0.40;;
38972;SDS011;25333;50.762;4.470;2024-02-26T02:20:14;1.33;;;0.25;;
38972;SDS011;25333;50.762;4.470;2024-02-26T02:26:23;1.17;;;0.32;;
38972;SDS011;25333;50.762;4.470;2024-02-26T02:29:07;0.70;;;0.20;;
38972;SDS011;25333;50.762;4.470;2024-02-26T02:31:42;1.88;;;0.50;;
38972;SDS011;25333;50.762;4.470;2024-02-26T02:37:59;1.58;;;0.45;;
38972;SDS011;25333;50.762;4.470;2024-02-26T02:41:10;1.50;;;0.47;;
38972;SDS011;25333;50.762;4.470;2024-02-26T02:43:37;0.55;;;0.30;;
38972;SDS011;25333;50.762;4.470;2024-02-26T02:46:05;0.95;;;0.30;;
38972;SDS011;25333;50.762;4.470;2024-02-26T02:48:32;1.33;;;0.40;;
38972;SDS011;25333;50.762;4.470;2024-02-26T02:51:04;1.50;;;0.20;;
38972;SDS011;25333;50.762;4.470;2024-02-26T03:00:04;2.08;;;0.50;;
38972;SDS011;25333;50.762;4.470;2024-02-26T03:03:13;2.10;;;0.25;;
38972;SDS011;25333;50.762;4.470;2024-02-26T03:12:43;1.20;;;0.40;;
38972;SDS011;25333;50.762;4.470;2024-02-26T03:15:24;0.90;;;0.20;;
38972;SDS011;25333;50.762;4.470;2024-02-26T03:17:57;1.67;;;0.40;;
38972;SDS011;25333;50.762;4.470;2024-02-26T03:20:26;1.27;;;0.30;;
38972;SDS011;25333;50.762;4.470;2024-02-26T03:23:07;1.77;;;0.70;;
38972;SDS011;25333;50.762;4.470;2024-02-26T03:25:34;1.27;;;0.25;;
38972;SDS011;25333;50.762;4.470;2024-02-26T03:28:00;1.37;;;0.40;;
38972;SDS011;25333;50.762;4.470;2024-02-26T03:30:30;1.38;;;0.32;;
38972;SDS011;25333;50.762;4.470;2024-02-26T03:32:56;3.30;;;0.57;;
38972;SDS011;25333;50.762;4.470;2024-02-26T03:35:22;1.55;;;0.32;;
38972;SDS011;25333;50.762;4.470;2024-02-26T03:37:47;1.30;;;0.50;;
38972;SDS011;25333;50.762;4.470;2024-02-26T03:40:15;1.30;;;0.50;;
38972;SDS011;25333;50.762;4.470;2024-02-26T03:42:44;3.00;;;0.75;;
38972;SDS011;25333;50.762;4.470;2024-02-26T03:45:14;2.15;;;0.32;;
38972;SDS011;25333;50.762;4.470;2024-02-26T03:47:40;1.35;;;0.38;;
38972;SDS011;25333;50.762;4.470;2024-02-26T03:50:06;0.95;;;0.40;;
38972;SDS011;25333;50.762;4.470;2024-02-26T03:52:32;1.98;;;0.60;;
38972;SDS011;25333;50.762;4.470;2024-02-26T03:54:59;1.13;;;0.60;;
38972;SDS011;25333;50.762;4.470;2024-02-26T03:57:24;1.30;;;0.60;;
38972;SDS011;25333;50.762;4.470;2024-02-26T03:59:50;0.80;;;0.50;;
38972;SDS011;25333;50.762;4.470;2024-02-26T04:02:16;2.60;;;0.40;;
38972;SDS011;25333;50.762;4.470;2024-02-26T04:04:45;2.22;;;0.75;;
38972;SDS011;25333;50.762;4.470;2024-02-26T04:07:11;2.40;;;0.70;;
38972;SDS011;25333;50.762;4.470;2024-02-26T04:09:38;1.15;;;0.50;;
38972;SDS011;25333;50.762;4.470;2024-02-26T04:12:04;1.20;;;0.60;;
38972;SDS011;25333;50.762;4.470;2024-02-26T04:14:30;2.00;;;0.70;;
38972;SDS011;25333;50.762;4.470;2024-02-26T04:16:57;1.50;;;0.70;;
38972;SDS011;25333;50.762;4.470;2024-02-26T04:19:23;1.58;;;0.75;;
38972;SDS011;25333;50.762;4.470;2024-02-26T04:21:51;1.23;;;0.67;;
38972;SDS011;25333;50.762;4.470;2024-02-26T04:24:16;1.27;;;0.80;;
38972;SDS011;25333;50.762;4.470;2024-02-26T04:26:42;2.00;;;0.70;;
38972;SDS011;25333;50.762;4.470;2024-02-26T04:29:08;3.07;;;0.60;;
38972;SDS011;25333;50.762;4.470;2024-02-26T04:31:33;2.53;;;1.27;;
38972;SDS011;25333;50.762;4.470;2024-02-26T04:33:59;2.35;;;0.85;;
38972;SDS011;25333;50.762;4.470;2024-02-26T04:36:25;1.80;;;0.80;;
38972;SDS011;25333;50.762;4.470;2024-02-26T04:38:51;1.70;;;0.73;;
38972;SDS011;25333;50.762;4.470;2024-02-26T04:41:19;1.65;;;0.90;;
38972;SDS011;25333;50.762;4.470;2024-02-26T04:43:45;4.00;;;0.90;;
38972;SDS011;25333;50.762;4.470;2024-02-26T04:46:10;1.95;;;1.17;;
38972;SDS011;25333;50.762;4.470;2024-02-26T04:48:36;1.95;;;0.80;;
38972;SDS011;25333;50.762;4.470;2024-02-26T04:51:03;1.50;;;1.08;;
38972;SDS011;25333;50.762;4.470;2024-02-26T04:53:30;1.90;;;1.00;;
38972;SDS011;25333;50.762;4.470;2024-02-26T04:55:56;2.13;;;0.80;;
38972;SDS011;25333;50.762;4.470;2024-02-26T04:58:22;2.78;;;0.90;;
38972;SDS011;25333;50.762;4.470;2024-02-26T05:00:48;1.70;;;0.90;;
38972;SDS011;25333;50.762;4.470;2024-02-26T05:03:14;1.00;;;0.67;;
38972;SDS011;25333;50.762;4.470;2024-02-26T05:05:41;1.75;;;0.80;;
38972;SDS011;25333;50.762;4.470;2024-02-26T05:08:08;1.33;;;0.80;;
38972;SDS011;25333;50.762;4.470;2024-02-26T05:10:33;2.22;;;0.77;;
38972;SDS011;25333;50.762;4.470;2024-02-26T05:13:04;3.33;;;1.27;;
38972;SDS011;25333;50.762;4.470;2024-02-26T05:15:30;2.75;;;1.30;;
38972;SDS011;25333;50.762;4.470;2024-02-26T05:17:55;8.13;;;1.70;;
38972;SDS011;25333;50.762;4.470;2024-02-26T05:20:21;1.88;;;1.13;;
38972;SDS011;25333;50.762;4.470;2024-02-26T05:22:47;2.47;;;1.48;;
38972;SDS011;25333;50.762;4.470;2024-02-26T05:25:14;2.90;;;1.65;;
38972;SDS011;25333;50.762;4.470;2024-02-26T05:27:41;3.83;;;1.25;;
38972;SDS011;25333;50.762;4.470;2024-02-26T05:30:11;2.67;;;1.38;;
38972;SDS011;25333;50.762;4.470;2024-02-26T05:32:37;4.73;;;1.77;;
38972;SDS011;25333;50.762;4.470;2024-02-26T05:35:03;2.80;;;1.77;;
38972;SDS011;25333;50.762;4.470;2024-02-26T05:37:30;2.78;;;2.10;;
38972;SDS011;25333;50.762;4.470;2024-02-26T05:39:56;3.47;;;2.55;;
38972;SDS011;25333;50.762;4.470;2024-02-26T05:42:21;7.23;;;2.90;;
38972;SDS011;25333;50.762;4.470;2024-02-26T05:44:47;3.83;;;2.92;;
38972;SDS011;25333;50.762;4.470;2024-02-26T05:47:13;4.77;;;2.93;;
38972;SDS011;25333;50.762;4.470;2024-02-26T05:49:39;3.97;;;3.03;;
38972;SDS011;25333;50.762;4.470;2024-02-26T05:52:05;3.83;;;2.70;;
38972;SDS011;25333;50.762;4.470;2024-02-26T05:54:31;5.78;;;3.10;;
38972;SDS011;25333;50.762;4.470;2024-02-26T05:56:57;4.20;;;3.00;;
38972;SDS011;25333;50.762;4.470;2024-02-26T05:59:23;4.57;;;3.05;;
38972;SDS011;25333;50.762;4.470;2024-02-26T06:01:49;6.17;;;3.10;;
38972;SDS011;25333;50.762;4.470;2024-02-26T06:04:14;4.28;;;3.13;;
38972;SDS011;25333;50.762;4.470;2024-02-26T06:06:42;3.65;;;3.25;;
38972;SDS011;25333;50.762;4.470;2024-02-26T06:09:07;4.38;;;3.05;;
38972;SDS011;25333;50.762;4.470;2024-02-26T06:11:33;4.17;;;2.97;;
38972;SDS011;25333;50.762;4.470;2024-02-26T06:13:58;7.28;;;3.83;;
38972;SDS011;25333;50.762;4.470;2024-02-26T06:16:25;6.13;;;3.75;;
38972;SDS011;25333;50.762;4.470;2024-02-26T06:18:51;5.15;;;3.55;;
38972;SDS011;25333;50.762;4.470;2024-02-26T06:21:17;4.82;;;3.63;;
38972;SDS011;25333;50.762;4.470;2024-02-26T06:23:44;6.13;;;3.97;;
38972;SDS011;25333;50.762;4.470;2024-02-26T06:26:13;6.63;;;4.70;;
38972;SDS011;25333;50.762;4.470;2024-02-26T06:28:39;5.57;;;3.80;;
38972;SDS011;25333;50.762;4.470;2024-02-26T06:31:07;5.03;;;4.43;;
38972;SDS011;25333;50.762;4.470;2024-02-26T06:33:33;6.13;;;4.93;;
38972;SDS011;25333;50.762;4.470;2024-02-26T06:36:09;5.80;;;4.03;;
38972;SDS011;25333;50.762;4.470;2024-02-26T06:38:34;7.00;;;4.55;;
38972;SDS011;25333;50.762;4.470;2024-02-26T06:41:00;5.70;;;4.40;;
38972;SDS011;25333;50.762;4.470;2024-02-26T06:43:41;6.27;;;4.07;;
38972;SDS011;25333;50.762;4.470;2024-02-26T06:46:31;5.20;;;4.20;;
38972;SDS011;25333;50.762;4.470;2024-02-26T06:53:13;5.82;;;4.40;;
38972;SDS011;25333;50.762;4.470;2024-02-26T06:55:41;5.78;;;4.57;;
38972;SDS011;25333;50.762;4.470;2024-02-26T06:58:18;6.55;;;4.63;;
38972;SDS011;25333;50.762;4.470;2024-02-26T07:04:26;7.55;;;5.30;;
38972;SDS011;25333;50.762;4.470;2024-02-26T07:11:11;8.03;;;6.00;;
38972;SDS011;25333;50.762;4.470;2024-02-26T07:17:25;9.50;;;6.00;;
38972;SDS011;25333;50.762;4.470;2024-02-26T07:37:13;8.23;;;7.33;;
38972;SDS011;25333;50.762;4.470;2024-02-26T07:57:37;8.35;;;6.75;;
38972;SDS011;25333;50.762;4.470;2024-02-26T08:28:36;9.90;;;7.40;;
38972;SDS011;25333;50.762;4.470;2024-02-26T08:39:47;7.78;;;6.68;;
38972;SDS011;25333;50.762;4.470;2024-02-26T09:07:14;9.95;;;6.20;;
38972;SDS011;25333;50.762;4.470;2024-02-26T10:00:16;7.78;;;5.60;;
38972;SDS011;25333;50.762;4.470;2024-02-26T12:02:59;3.80;;;3.20;;
38972;SDS011;25333;50.762;4.470;2024-02-26T12:31:19;3.13;;;2.42;;
38972;SDS011;25333;50.762;4.470;2024-02-26T16:13:11;8.65;;;5.90;;
38972;SDS011;25333;50.762;4.470;2024-02-26T16:15:56;6.70;;;5.22;;
38972;SDS011;25333;50.762;4.470;2024-02-26T16:18:33;7.68;;;5.72;;
38972;SDS011;25333;50.762;4.470;2024-02-26T16:21:05;7.70;;;4.97;;
38972;SDS011;25333;50.762;4.470;2024-02-26T16:23:48;7.93;;;5.57;;
38972;SDS011;25333;50.762;4.470;2024-02-26T16:26:22;7.75;;;6.10;;
38972;SDS011;25333;50.762;4.470;2024-02-26T16:28:57;7.87;;;5.80;;
38972;SDS011;25333;50.762;4.470;2024-02-26T16:38:22;7.10;;;5.05;;
38972;SDS011;25333;50.762;4.470;2024-02-26T16:44:42;7.53;;;5.05;;
38972;SDS011;25333;50.762;4.470;2024-02-26T16:47:31;7.30;;;4.53;;
38972;SDS011;25333;50.762;4.470;2024-02-26T16:50:36;6.53;;;4.78;;
38972;SDS011;25333;50.762;4.470;2024-02-26T16:53:32;6.55;;;4.90;;
38972;SDS011;25333;50.762;4.470;2024-02-26T16:56:25;6.63;;;5.20;;
38972;SDS011;25333;50.762;4.470;2024-02-26T16:58:54;7.47;;;5.40;;
38972;SDS011;25333;50.762;4.470;2024-02-26T17:01:53;7.10;;;4.50;;
